sensor_id;sensor_type;location;lat;lon;timestamp;P1;durP1;ratioP1;P2;durP2;ratioP2
6344;SDS011;3205;42.666;23.264;2024-01-15T00:00:32;89.67;;;31.50;;
6344;SDS011;3205;42.666;23.264;2024-01-15T00:02:59;82.77;;;32.60;;
6344;SDS011;3205;42.666;23.264;2024-01-15T00:05:25;77.83;;;31.70;;
6344;SDS011;3205;42.666;23.264;2024-01-15T00:07:51;80.07;;;31.87;;
6344;SDS011;3205;42.666;23.264;2024-01-15T00:10:18;88.77;;;32.80;;
6344;SDS011;3205;42.666;23.264;2024-01-15T00:12:45;75.43;;;28.73;;
6344;SDS011;3205;42.666;23.264;2024-01-15T00:15:11;85.27;;;29.80;;
6344;SDS011;3205;42.666;23.264;2024-01-15T00:17:37;83.97;;;32.37;;
6344;SDS011;3205;42.666;23.264;2024-01-15T00:20:04;86.83;;;30.13;;
6344;SDS011;3205;42.666;23.264;2024-01-15T00:22:32;88.47;;;31.83;;
6344;SDS011;3205;42.666;23.264;2024-01-15T00:25:00;78.07;;;30.27;;
6344;SDS011;3205;42.666;23.264;2024-01-15T00:27:27;83.03;;;28.87;;
6344;SDS011;3205;42.666;23.264;2024-01-15T00:29:54;86.20;;;30.80;;
6344;SDS011;3205;42.666;23.264;2024-01-15T00:32:20;84.00;;;30.00;;
6344;SDS011;3205;42.666;23.264;2024-01-15T00:34:46;79.50;;;29.90;;
6344;SDS011;3205;42.666;23.264;2024-01-15T00:37:13;82.67;;;30.20;;
6344;SDS011;3205;42.666;23.264;2024-01-15T00:39:39;82.47;;;28.93;;
6344;SDS011;3205;42.666;23.264;2024-01-15T00:42:05;80.70;;;30.23;;
6344;SDS011;3205;42.666;23.264;2024-01-15T00:44:32;79.77;;;28.63;;
6344;SDS011;3205;42.666;23.264;2024-01-15T00:46:59;74.73;;;29.13;;
6344;SDS011;3205;42.666;23.264;2024-01-15T00:49:27;72.33;;;27.90;;
6344;SDS011;3205;42.666;23.264;2024-01-15T00:51:53;79.87;;;28.83;;
6344;SDS011;3205;42.666;23.264;2024-01-15T00:54:19;77.53;;;28.60;;
6344;SDS011;3205;42.666;23.264;2024-01-15T00:56:46;67.30;;;28.50;;
6344;SDS011;3205;42.666;23.264;2024-01-15T00:59:12;74.00;;;29.47;;
6344;SDS011;3205;42.666;23.264;2024-01-15T01:01:40;88.03;;;29.70;;
6344;SDS011;3205;42.666;23.264;2024-01-15T01:04:08;73.83;;;28.33;;
6344;SDS011;3205;42.666;23.264;2024-01-15T01:06:35;72.90;;;27.60;;
6344;SDS011;3205;42.666;23.264;2024-01-15T01:09:01;78.13;;;28.47;;
6344;SDS011;3205;42.666;23.264;2024-01-15T01:11:27;79.57;;;29.83;;
6344;SDS011;3205;42.666;23.264;2024-01-15T01:13:54;85.47;;;30.43;;
6344;SDS011;3205;42.666;23.264;2024-01-15T01:16:21;76.90;;;28.83;;
6344;SDS011;3205;42.666;23.264;2024-01-15T01:18:48;82.13;;;30.23;;
6344;SDS011;3205;42.666;23.264;2024-01-15T01:21:14;73.00;;;28.70;;
6344;SDS011;3205;42.666;23.264;2024-01-15T01:23:42;80.33;;;28.60;;
6344;SDS011;3205;42.666;23.264;2024-01-15T01:26:08;70.27;;;27.40;;
6344;SDS011;3205;42.666;23.264;2024-01-15T01:28:34;75.87;;;28.43;;
6344;SDS011;3205;42.666;23.264;2024-01-15T01:31:00;77.20;;;29.97;;
6344;SDS011;3205;42.666;23.264;2024-01-15T01:33:28;74.97;;;28.87;;
6344;SDS011;3205;42.666;23.264;2024-01-15T01:35:55;67.10;;;26.50;;
6344;SDS011;3205;42.666;23.264;2024-01-15T01:38:22;73.33;;;26.73;;
6344;SDS011;3205;42.666;23.264;2024-01-15T01:40:48;70.00;;;25.80;;
6344;SDS011;3205;42.666;23.264;2024-01-15T01:43:14;61.37;;;25.33;;
6344;SDS011;3205;42.666;23.264;2024-01-15T01:45:41;69.03;;;22.70;;
6344;SDS011;3205;42.666;23.264;2024-01-15T01:48:07;68.87;;;24.27;;
6344;SDS011;3205;42.666;23.264;2024-01-15T01:50:36;51.57;;;22.37;;
6344;SDS011;3205;42.666;23.264;2024-01-15T01:53:03;61.07;;;24.13;;
6344;SDS011;3205;42.666;23.264;2024-01-15T01:55:30;55.67;;;23.13;;
6344;SDS011;3205;42.666;23.264;2024-01-15T01:57:59;66.17;;;22.90;;
6344;SDS011;3205;42.666;23.264;2024-01-15T02:00:26;63.23;;;23.23;;
6344;SDS011;3205;42.666;23.264;2024-01-15T02:02:52;66.17;;;23.40;;
6344;SDS011;3205;42.666;23.264;2024-01-15T02:05:19;64.70;;;25.83;;
6344;SDS011;3205;42.666;23.264;2024-01-15T02:07:47;69.67;;;28.20;;
6344;SDS011;3205;42.666;23.264;2024-01-15T02:10:13;71.40;;;27.60;;
6344;SDS011;3205;42.666;23.264;2024-01-15T02:12:40;64.50;;;26.97;;
6344;SDS011;3205;42.666;23.264;2024-01-15T02:15:08;71.47;;;26.63;;
6344;SDS011;3205;42.666;23.264;2024-01-15T02:17:34;80.47;;;28.13;;
6344;SDS011;3205;42.666;23.264;2024-01-15T02:20:01;71.40;;;27.10;;
6344;SDS011;3205;42.666;23.264;2024-01-15T02:22:27;70.17;;;25.90;;
6344;SDS011;3205;42.666;23.264;2024-01-15T02:24:54;60.93;;;24.93;;
6344;SDS011;3205;42.666;23.264;2024-01-15T02:27:20;53.47;;;21.53;;
6344;SDS011;3205;42.666;23.264;2024-01-15T02:29:47;57.57;;;22.67;;
6344;SDS011;3205;42.666;23.264;2024-01-15T02:32:14;67.00;;;23.03;;
6344;SDS011;3205;42.666;23.264;2024-01-15T02:34:40;70.00;;;24.23;;
6344;SDS011;3205;42.666;23.264;2024-01-15T02:37:06;55.27;;;22.50;;
6344;SDS011;3205;42.666;23.264;2024-01-15T02:39:33;52.07;;;23.10;;
6344;SDS011;3205;42.666;23.264;2024-01-15T02:42:00;55.77;;;21.83;;
6344;SDS011;3205;42.666;23.264;2024-01-15T02:44:26;56.37;;;21.73;;
6344;SDS011;3205;42.666;23.264;2024-01-15T02:46:52;53.50;;;22.57;;
6344;SDS011;3205;42.666;23.264;2024-01-15T02:49:19;55.33;;;22.30;;
6344;SDS011;3205;42.666;23.264;2024-01-15T02:51:46;58.90;;;21.47;;
6344;SDS011;3205;42.666;23.264;2024-01-15T02:54:13;53.33;;;21.97;;
6344;SDS011;3205;42.666;23.264;2024-01-15T02:56:39;46.83;;;20.23;;
6344;SDS011;3205;42.666;23.264;2024-01-15T02:59:06;56.13;;;22.57;;
6344;SDS011;3205;42.666;23.264;2024-01-15T03:01:32;56.27;;;21.53;;
6344;SDS011;3205;42.666;23.264;2024-01-15T03:03:58;48.13;;;20.57;;
6344;SDS011;3205;42.666;23.264;2024-01-15T03:06:25;52.17;;;21.30;;
6344;SDS011;3205;42.666;23.264;2024-01-15T03:08:51;46.77;;;19.87;;
6344;SDS011;3205;42.666;23.264;2024-01-15T03:11:17;51.23;;;21.37;;
6344;SDS011;3205;42.666;23.264;2024-01-15T03:13:44;56.17;;;22.40;;
6344;SDS011;3205;42.666;23.264;2024-01-15T03:16:11;44.93;;;20.93;;
6344;SDS011;3205;42.666;23.264;2024-01-15T03:18:37;48.07;;;20.90;;
6344;SDS011;3205;42.666;23.264;2024-01-15T03:21:04;47.07;;;20.47;;
6344;SDS011;3205;42.666;23.264;2024-01-15T03:23:31;52.37;;;20.23;;
6344;SDS011;3205;42.666;23.264;2024-01-15T03:25:57;62.23;;;22.10;;
6344;SDS011;3205;42.666;23.264;2024-01-15T03:28:24;48.50;;;21.07;;
6344;SDS011;3205;42.666;23.264;2024-01-15T03:30:50;55.43;;;22.97;;
6344;SDS011;3205;42.666;23.264;2024-01-15T03:33:17;53.97;;;20.30;;
6344;SDS011;3205;42.666;23.264;2024-01-15T03:35:43;51.40;;;20.50;;
6344;SDS011;3205;42.666;23.264;2024-01-15T03:38:10;46.13;;;20.73;;
6344;SDS011;3205;42.666;23.264;2024-01-15T03:40:36;55.57;;;21.00;;
6344;SDS011;3205;42.666;23.264;2024-01-15T03:43:02;55.60;;;22.30;;
6344;SDS011;3205;42.666;23.264;2024-01-15T03:45:29;55.30;;;22.17;;
6344;SDS011;3205;42.666;23.264;2024-01-15T03:47:55;56.07;;;21.57;;
6344;SDS011;3205;42.666;23.264;2024-01-15T03:50:22;54.23;;;22.07;;
6344;SDS011;3205;42.666;23.264;2024-01-15T03:52:49;63.53;;;24.77;;
6344;SDS011;3205;42.666;23.264;2024-01-15T03:55:16;51.87;;;22.10;;
6344;SDS011;3205;42.666;23.264;2024-01-15T03:57:42;49.77;;;22.23;;
6344;SDS011;3205;42.666;23.264;2024-01-15T04:00:09;61.23;;;22.87;;
6344;SDS011;3205;42.666;23.264;2024-01-15T04:02:37;58.17;;;22.20;;
6344;SDS011;3205;42.666;23.264;2024-01-15T04:05:04;66.77;;;22.53;;
6344;SDS011;3205;42.666;23.264;2024-01-15T04:07:31;48.93;;;21.93;;
6344;SDS011;3205;42.666;23.264;2024-01-15T04:09:58;52.27;;;22.30;;
6344;SDS011;3205;42.666;23.264;2024-01-15T04:12:25;55.80;;;22.77;;
6344;SDS011;3205;42.666;23.264;2024-01-15T04:14:51;57.53;;;21.93;;
6344;SDS011;3205;42.666;23.264;2024-01-15T04:17:17;60.33;;;22.43;;
6344;SDS011;3205;42.666;23.264;2024-01-15T04:19:43;72.30;;;28.17;;
6344;SDS011;3205;42.666;23.264;2024-01-15T04:22:10;70.33;;;28.60;;
6344;SDS011;3205;42.666;23.264;2024-01-15T04:24:37;80.27;;;30.23;;
6344;SDS011;3205;42.666;23.264;2024-01-15T04:27:03;84.30;;;31.40;;
6344;SDS011;3205;42.666;23.264;2024-01-15T04:29:30;171.33;;;58.97;;
6344;SDS011;3205;42.666;23.264;2024-01-15T04:31:56;171.27;;;62.67;;
6344;SDS011;3205;42.666;23.264;2024-01-15T04:34:23;181.50;;;63.97;;
6344;SDS011;3205;42.666;23.264;2024-01-15T04:36:49;174.07;;;60.70;;
6344;SDS011;3205;42.666;23.264;2024-01-15T04:39:15;162.93;;;59.03;;
6344;SDS011;3205;42.666;23.264;2024-01-15T04:41:42;180.47;;;61.80;;
6344;SDS011;3205;42.666;23.264;2024-01-15T04:44:09;168.37;;;57.77;;
6344;SDS011;3205;42.666;23.264;2024-01-15T04:46:35;167.10;;;59.87;;
6344;SDS011;3205;42.666;23.264;2024-01-15T04:49:01;159.17;;;59.53;;
6344;SDS011;3205;42.666;23.264;2024-01-15T04:51:27;155.13;;;58.07;;
6344;SDS011;3205;42.666;23.264;2024-01-15T04:53:54;167.03;;;61.50;;
6344;SDS011;3205;42.666;23.264;2024-01-15T04:56:20;160.57;;;57.80;;
6344;SDS011;3205;42.666;23.264;2024-01-15T04:58:47;163.03;;;59.50;;
6344;SDS011;3205;42.666;23.264;2024-01-15T05:01:15;158.90;;;59.47;;
6344;SDS011;3205;42.666;23.264;2024-01-15T05:03:41;168.93;;;57.87;;
6344;SDS011;3205;42.666;23.264;2024-01-15T05:06:08;172.97;;;61.93;;
6344;SDS011;3205;42.666;23.264;2024-01-15T05:08:34;174.90;;;62.40;;
6344;SDS011;3205;42.666;23.264;2024-01-15T05:11:00;182.93;;;66.63;;
6344;SDS011;3205;42.666;23.264;2024-01-15T05:13:27;171.23;;;61.37;;
6344;SDS011;3205;42.666;23.264;2024-01-15T05:15:54;178.67;;;64.83;;
6344;SDS011;3205;42.666;23.264;2024-01-15T05:18:20;181.33;;;63.67;;
6344;SDS011;3205;42.666;23.264;2024-01-15T05:20:47;181.07;;;64.93;;
6344;SDS011;3205;42.666;23.264;2024-01-15T05:23:13;182.73;;;67.60;;
6344;SDS011;3205;42.666;23.264;2024-01-15T05:25:39;167.77;;;63.50;;
6344;SDS011;3205;42.666;23.264;2024-01-15T05:28:06;177.10;;;67.50;;
6344;SDS011;3205;42.666;23.264;2024-01-15T05:30:33;179.83;;;65.67;;
6344;SDS011;3205;42.666;23.264;2024-01-15T05:33:00;173.00;;;61.50;;
6344;SDS011;3205;42.666;23.264;2024-01-15T05:35:28;152.63;;;52.60;;
6344;SDS011;3205;42.666;23.264;2024-01-15T05:37:54;132.20;;;53.50;;
6344;SDS011;3205;42.666;23.264;2024-01-15T05:40:20;164.27;;;58.10;;
6344;SDS011;3205;42.666;23.264;2024-01-15T05:42:46;143.70;;;53.20;;
6344;SDS011;3205;42.666;23.264;2024-01-15T05:45:13;134.10;;;52.10;;
6344;SDS011;3205;42.666;23.264;2024-01-15T05:47:39;139.73;;;51.27;;
6344;SDS011;3205;42.666;23.264;2024-01-15T05:50:06;144.50;;;52.43;;
6344;SDS011;3205;42.666;23.264;2024-01-15T05:52:33;144.93;;;51.97;;
6344;SDS011;3205;42.666;23.264;2024-01-15T05:55:00;142.00;;;50.50;;
6344;SDS011;3205;42.666;23.264;2024-01-15T05:57:26;145.87;;;51.67;;
6344;SDS011;3205;42.666;23.264;2024-01-15T05:59:53;143.57;;;52.70;;
6344;SDS011;3205;42.666;23.264;2024-01-15T06:02:19;154.07;;;52.57;;
6344;SDS011;3205;42.666;23.264;2024-01-15T06:04:46;136.50;;;49.23;;
6344;SDS011;3205;42.666;23.264;2024-01-15T06:07:13;134.50;;;51.33;;
6344;SDS011;3205;42.666;23.264;2024-01-15T06:09:39;129.00;;;45.77;;
6344;SDS011;3205;42.666;23.264;2024-01-15T06:12:06;130.03;;;45.73;;
6344;SDS011;3205;42.666;23.264;2024-01-15T06:14:33;131.10;;;46.63;;
6344;SDS011;3205;42.666;23.264;2024-01-15T06:17:02;121.87;;;46.47;;
6344;SDS011;3205;42.666;23.264;2024-01-15T06:19:28;115.13;;;44.40;;
6344;SDS011;3205;42.666;23.264;2024-01-15T06:21:54;107.23;;;41.63;;
6344;SDS011;3205;42.666;23.264;2024-01-15T06:24:21;118.53;;;44.83;;
6344;SDS011;3205;42.666;23.264;2024-01-15T06:26:48;115.23;;;44.77;;
6344;SDS011;3205;42.666;23.264;2024-01-15T06:29:14;115.97;;;44.47;;
6344;SDS011;3205;42.666;23.264;2024-01-15T06:31:40;107.07;;;42.97;;
6344;SDS011;3205;42.666;23.264;2024-01-15T06:34:06;127.73;;;45.80;;
6344;SDS011;3205;42.666;23.264;2024-01-15T06:36:33;107.60;;;45.57;;
6344;SDS011;3205;42.666;23.264;2024-01-15T06:38:59;160.37;;;57.43;;
6344;SDS011;3205;42.666;23.264;2024-01-15T06:41:26;152.07;;;54.73;;
6344;SDS011;3205;42.666;23.264;2024-01-15T06:43:52;130.17;;;47.97;;
6344;SDS011;3205;42.666;23.264;2024-01-15T06:46:19;111.67;;;44.33;;
6344;SDS011;3205;42.666;23.264;2024-01-15T06:48:46;129.70;;;48.10;;
6344;SDS011;3205;42.666;23.264;2024-01-15T06:51:12;130.47;;;50.20;;
6344;SDS011;3205;42.666;23.264;2024-01-15T06:53:39;146.10;;;52.27;;
6344;SDS011;3205;42.666;23.264;2024-01-15T06:56:05;132.83;;;49.57;;
6344;SDS011;3205;42.666;23.264;2024-01-15T06:58:32;135.00;;;50.30;;
6344;SDS011;3205;42.666;23.264;2024-01-15T07:00:59;130.40;;;49.53;;
6344;SDS011;3205;42.666;23.264;2024-01-15T07:03:25;144.40;;;51.57;;
6344;SDS011;3205;42.666;23.264;2024-01-15T07:05:53;133.33;;;52.67;;
6344;SDS011;3205;42.666;23.264;2024-01-15T07:08:20;128.47;;;51.93;;
6344;SDS011;3205;42.666;23.264;2024-01-15T07:10:46;134.20;;;49.30;;
6344;SDS011;3205;42.666;23.264;2024-01-15T07:13:12;118.37;;;48.37;;
6344;SDS011;3205;42.666;23.264;2024-01-15T07:15:39;119.27;;;48.40;;
6344;SDS011;3205;42.666;23.264;2024-01-15T07:18:06;121.27;;;49.57;;
6344;SDS011;3205;42.666;23.264;2024-01-15T07:20:32;136.10;;;49.27;;
6344;SDS011;3205;42.666;23.264;2024-01-15T07:22:59;126.27;;;48.03;;
6344;SDS011;3205;42.666;23.264;2024-01-15T07:25:25;119.43;;;47.17;;
6344;SDS011;3205;42.666;23.264;2024-01-15T07:27:51;120.30;;;48.07;;
6344;SDS011;3205;42.666;23.264;2024-01-15T07:30:19;115.27;;;47.23;;
6344;SDS011;3205;42.666;23.264;2024-01-15T07:32:47;113.93;;;47.40;;
6344;SDS011;3205;42.666;23.264;2024-01-15T07:35:14;121.23;;;46.73;;
6344;SDS011;3205;42.666;23.264;2024-01-15T07:37:40;130.07;;;51.83;;
6344;SDS011;3205;42.666;23.264;2024-01-15T07:40:07;116.20;;;47.33;;
6344;SDS011;3205;42.666;23.264;2024-01-15T07:42:34;113.53;;;48.13;;
6344;SDS011;3205;42.666;23.264;2024-01-15T07:45:00;109.00;;;47.43;;
6344;SDS011;3205;42.666;23.264;2024-01-15T07:47:26;114.47;;;47.73;;
6344;SDS011;3205;42.666;23.264;2024-01-15T07:49:53;120.90;;;49.27;;
6344;SDS011;3205;42.666;23.264;2024-01-15T07:52:20;127.53;;;49.20;;
6344;SDS011;3205;42.666;23.264;2024-01-15T07:54:47;118.57;;;45.23;;
6344;SDS011;3205;42.666;23.264;2024-01-15T07:57:13;112.37;;;52.47;;
6344;SDS011;3205;42.666;23.264;2024-01-15T07:59:39;102.33;;;41.53;;
6344;SDS011;3205;42.666;23.264;2024-01-15T08:02:06;101.67;;;39.33;;
6344;SDS011;3205;42.666;23.264;2024-01-15T08:04:32;113.83;;;44.57;;
6344;SDS011;3205;42.666;23.264;2024-01-15T08:06:59;108.77;;;45.20;;
6344;SDS011;3205;42.666;23.264;2024-01-15T08:09:25;106.50;;;42.70;;
6344;SDS011;3205;42.666;23.264;2024-01-15T08:11:51;117.33;;;44.97;;
6344;SDS011;3205;42.666;23.264;2024-01-15T08:14:18;106.33;;;44.20;;
6344;SDS011;3205;42.666;23.264;2024-01-15T08:16:44;125.30;;;52.37;;
6344;SDS011;3205;42.666;23.264;2024-01-15T08:19:10;114.97;;;45.97;;
6344;SDS011;3205;42.666;23.264;2024-01-15T08:21:37;111.53;;;42.17;;
6344;SDS011;3205;42.666;23.264;2024-01-15T08:24:04;105.27;;;43.53;;
6344;SDS011;3205;42.666;23.264;2024-01-15T08:26:31;103.03;;;43.13;;
6344;SDS011;3205;42.666;23.264;2024-01-15T08:28:58;110.80;;;46.67;;
6344;SDS011;3205;42.666;23.264;2024-01-15T08:31:24;111.00;;;47.13;;
6344;SDS011;3205;42.666;23.264;2024-01-15T08:33:51;115.30;;;47.20;;
6344;SDS011;3205;42.666;23.264;2024-01-15T08:36:17;124.53;;;48.43;;
6344;SDS011;3205;42.666;23.264;2024-01-15T08:38:44;108.77;;;47.97;;
6344;SDS011;3205;42.666;23.264;2024-01-15T08:41:11;113.60;;;48.60;;
6344;SDS011;3205;42.666;23.264;2024-01-15T08:43:37;122.80;;;47.87;;
6344;SDS011;3205;42.666;23.264;2024-01-15T08:46:04;88.50;;;37.97;;
6344;SDS011;3205;42.666;23.264;2024-01-15T08:48:30;74.83;;;32.90;;
6344;SDS011;3205;42.666;23.264;2024-01-15T08:50:56;65.57;;;29.53;;
6344;SDS011;3205;42.666;23.264;2024-01-15T08:53:22;72.10;;;31.00;;
6344;SDS011;3205;42.666;23.264;2024-01-15T08:55:49;69.43;;;29.03;;
6344;SDS011;3205;42.666;23.264;2024-01-15T08:58:17;70.17;;;33.33;;
6344;SDS011;3205;42.666;23.264;2024-01-15T09:00:43;69.43;;;29.27;;
6344;SDS011;3205;42.666;23.264;2024-01-15T09:03:10;77.77;;;30.00;;
6344;SDS011;3205;42.666;23.264;2024-01-15T09:05:37;66.47;;;29.70;;
6344;SDS011;3205;42.666;23.264;2024-01-15T09:08:03;67.83;;;29.17;;
6344;SDS011;3205;42.666;23.264;2024-01-15T09:10:30;57.73;;;26.47;;
6344;SDS011;3205;42.666;23.264;2024-01-15T09:12:56;72.50;;;29.07;;
6344;SDS011;3205;42.666;23.264;2024-01-15T09:15:23;62.07;;;27.37;;
6344;SDS011;3205;42.666;23.264;2024-01-15T09:17:49;63.90;;;25.70;;
6344;SDS011;3205;42.666;23.264;2024-01-15T09:20:16;59.90;;;29.60;;
6344;SDS011;3205;42.666;23.264;2024-01-15T09:22:43;77.73;;;27.80;;
6344;SDS011;3205;42.666;23.264;2024-01-15T09:25:10;62.13;;;28.27;;
6344;SDS011;3205;42.666;23.264;2024-01-15T09:27:37;51.27;;;26.07;;
6344;SDS011;3205;42.666;23.264;2024-01-15T09:30:03;60.47;;;26.57;;
6344;SDS011;3205;42.666;23.264;2024-01-15T09:32:31;51.83;;;24.73;;
6344;SDS011;3205;42.666;23.264;2024-01-15T09:34:58;50.57;;;25.63;;
6344;SDS011;3205;42.666;23.264;2024-01-15T09:37:24;48.77;;;24.93;;
6344;SDS011;3205;42.666;23.264;2024-01-15T09:39:51;48.50;;;24.63;;
6344;SDS011;3205;42.666;23.264;2024-01-15T09:42:17;49.87;;;27.33;;
6344;SDS011;3205;42.666;23.264;2024-01-15T09:44:44;52.80;;;27.30;;
6344;SDS011;3205;42.666;23.264;2024-01-15T09:47:11;61.33;;;30.80;;
6344;SDS011;3205;42.666;23.264;2024-01-15T09:49:39;64.37;;;32.67;;
6344;SDS011;3205;42.666;23.264;2024-01-15T09:52:06;59.67;;;32.57;;
6344;SDS011;3205;42.666;23.264;2024-01-15T09:54:33;74.07;;;36.00;;
6344;SDS011;3205;42.666;23.264;2024-01-15T09:57:00;75.53;;;35.97;;
6344;SDS011;3205;42.666;23.264;2024-01-15T09:59:26;81.60;;;37.97;;
6344;SDS011;3205;42.666;23.264;2024-01-15T10:01:53;82.07;;;37.13;;
6344;SDS011;3205;42.666;23.264;2024-01-15T10:04:24;68.00;;;35.03;;
6344;SDS011;3205;42.666;23.264;2024-01-15T10:06:51;73.57;;;33.33;;
6344;SDS011;3205;42.666;23.264;2024-01-15T10:09:18;48.27;;;22.07;;
6344;SDS011;3205;42.666;23.264;2024-01-15T10:11:44;47.97;;;25.30;;
6344;SDS011;3205;42.666;23.264;2024-01-15T10:14:11;65.83;;;30.57;;
6344;SDS011;3205;42.666;23.264;2024-01-15T10:16:38;73.17;;;33.70;;
6344;SDS011;3205;42.666;23.264;2024-01-15T10:19:05;81.97;;;33.10;;
6344;SDS011;3205;42.666;23.264;2024-01-15T10:21:31;66.83;;;32.00;;
6344;SDS011;3205;42.666;23.264;2024-01-15T10:24:00;82.97;;;38.13;;
6344;SDS011;3205;42.666;23.264;2024-01-15T10:26:28;84.13;;;39.33;;
6344;SDS011;3205;42.666;23.264;2024-01-15T10:28:55;80.27;;;39.90;;
6344;SDS011;3205;42.666;23.264;2024-01-15T10:31:21;94.47;;;39.07;;
6344;SDS011;3205;42.666;23.264;2024-01-15T10:33:47;93.40;;;38.93;;
6344;SDS011;3205;42.666;23.264;2024-01-15T10:36:14;76.00;;;37.80;;
6344;SDS011;3205;42.666;23.264;2024-01-15T10:38:42;87.10;;;37.93;;
6344;SDS011;3205;42.666;23.264;2024-01-15T10:41:09;74.10;;;35.20;;
6344;SDS011;3205;42.666;23.264;2024-01-15T10:43:36;79.93;;;36.50;;
6344;SDS011;3205;42.666;23.264;2024-01-15T10:46:03;86.00;;;41.60;;
6344;SDS011;3205;42.666;23.264;2024-01-15T10:48:30;85.73;;;35.47;;
6344;SDS011;3205;42.666;23.264;2024-01-15T10:50:56;81.37;;;34.60;;
6344;SDS011;3205;42.666;23.264;2024-01-15T10:53:23;69.80;;;31.03;;
6344;SDS011;3205;42.666;23.264;2024-01-15T10:55:50;64.73;;;30.27;;
6344;SDS011;3205;42.666;23.264;2024-01-15T10:58:17;73.40;;;30.77;;
6344;SDS011;3205;42.666;23.264;2024-01-15T11:00:44;85.87;;;33.63;;
6344;SDS011;3205;42.666;23.264;2024-01-15T11:03:10;67.97;;;31.57;;
6344;SDS011;3205;42.666;23.264;2024-01-15T11:05:38;76.07;;;35.13;;
6344;SDS011;3205;42.666;23.264;2024-01-15T11:08:05;66.13;;;30.53;;
6344;SDS011;3205;42.666;23.264;2024-01-15T11:10:38;66.50;;;30.20;;
6344;SDS011;3205;42.666;23.264;2024-01-15T11:13:07;69.83;;;30.37;;
6344;SDS011;3205;42.666;23.264;2024-01-15T11:18:26;55.37;;;26.10;;
6344;SDS011;3205;42.666;23.264;2024-01-15T11:23:47;57.23;;;26.57;;
6344;SDS011;3205;42.666;23.264;2024-01-15T11:26:30;65.53;;;26.03;;
6344;SDS011;3205;42.666;23.264;2024-01-15T11:28:58;61.27;;;27.10;;
6344;SDS011;3205;42.666;23.264;2024-01-15T11:31:29;62.37;;;26.40;;
6344;SDS011;3205;42.666;23.264;2024-01-15T11:37:17;44.50;;;21.37;;
6344;SDS011;3205;42.666;23.264;2024-01-15T11:39:44;49.47;;;22.67;;
6344;SDS011;3205;42.666;23.264;2024-01-15T11:42:12;58.90;;;23.07;;
6344;SDS011;3205;42.666;23.264;2024-01-15T11:44:41;61.37;;;23.27;;
6344;SDS011;3205;42.666;23.264;2024-01-15T11:47:08;63.00;;;23.17;;
6344;SDS011;3205;42.666;23.264;2024-01-15T11:52:26;53.50;;;22.80;;
6344;SDS011;3205;42.666;23.264;2024-01-15T11:54:58;50.47;;;23.93;;
6344;SDS011;3205;42.666;23.264;2024-01-15T11:57:33;56.07;;;25.50;;
6344;SDS011;3205;42.666;23.264;2024-01-15T12:00:06;53.33;;;24.43;;
6344;SDS011;3205;42.666;23.264;2024-01-15T12:02:34;58.60;;;25.73;;
6344;SDS011;3205;42.666;23.264;2024-01-15T12:05:01;46.83;;;22.83;;
6344;SDS011;3205;42.666;23.264;2024-01-15T12:07:28;51.27;;;23.83;;
6344;SDS011;3205;42.666;23.264;2024-01-15T12:09:54;52.17;;;25.10;;
6344;SDS011;3205;42.666;23.264;2024-01-15T12:12:23;47.53;;;24.43;;
6344;SDS011;3205;42.666;23.264;2024-01-15T12:14:53;68.80;;;27.20;;
6344;SDS011;3205;42.666;23.264;2024-01-15T12:17:19;58.47;;;27.57;;
6344;SDS011;3205;42.666;23.264;2024-01-15T12:19:46;65.47;;;26.90;;
6344;SDS011;3205;42.666;23.264;2024-01-15T12:22:13;64.63;;;26.97;;
6344;SDS011;3205;42.666;23.264;2024-01-15T12:24:40;55.87;;;25.67;;
6344;SDS011;3205;42.666;23.264;2024-01-15T12:27:06;47.40;;;24.30;;
6344;SDS011;3205;42.666;23.264;2024-01-15T12:29:34;50.17;;;24.73;;
6344;SDS011;3205;42.666;23.264;2024-01-15T12:32:00;61.27;;;25.77;;
6344;SDS011;3205;42.666;23.264;2024-01-15T12:34:28;62.23;;;26.00;;
6344;SDS011;3205;42.666;23.264;2024-01-15T12:36:57;55.83;;;24.80;;
6344;SDS011;3205;42.666;23.264;2024-01-15T12:39:24;46.27;;;23.30;;
6344;SDS011;3205;42.666;23.264;2024-01-15T12:41:50;47.13;;;22.10;;
6344;SDS011;3205;42.666;23.264;2024-01-15T12:44:17;53.70;;;25.03;;
6344;SDS011;3205;42.666;23.264;2024-01-15T12:46:43;49.63;;;22.10;;
6344;SDS011;3205;42.666;23.264;2024-01-15T12:49:09;55.30;;;26.43;;
6344;SDS011;3205;42.666;23.264;2024-01-15T12:51:36;49.40;;;23.60;;
6344;SDS011;3205;42.666;23.264;2024-01-15T12:54:03;52.17;;;23.30;;
6344;SDS011;3205;42.666;23.264;2024-01-15T12:56:29;51.63;;;22.40;;
6344;SDS011;3205;42.666;23.264;2024-01-15T12:58:55;53.43;;;23.97;;
6344;SDS011;3205;42.666;23.264;2024-01-15T13:01:22;47.17;;;22.80;;
6344;SDS011;3205;42.666;23.264;2024-01-15T13:03:48;53.23;;;22.67;;
6344;SDS011;3205;42.666;23.264;2024-01-15T13:06:14;74.17;;;30.37;;
6344;SDS011;3205;42.666;23.264;2024-01-15T13:08:41;52.80;;;24.03;;
6344;SDS011;3205;42.666;23.264;2024-01-15T13:11:08;47.10;;;21.90;;
6344;SDS011;3205;42.666;23.264;2024-01-15T13:13:36;43.20;;;21.50;;
6344;SDS011;3205;42.666;23.264;2024-01-15T13:16:03;46.50;;;21.93;;
6344;SDS011;3205;42.666;23.264;2024-01-15T13:18:29;49.20;;;22.43;;
6344;SDS011;3205;42.666;23.264;2024-01-15T13:20:56;43.17;;;20.50;;
6344;SDS011;3205;42.666;23.264;2024-01-15T13:23:22;48.50;;;21.97;;
6344;SDS011;3205;42.666;23.264;2024-01-15T13:25:48;49.53;;;22.60;;
6344;SDS011;3205;42.666;23.264;2024-01-15T13:28:15;60.67;;;24.33;;
6344;SDS011;3205;42.666;23.264;2024-01-15T13:30:42;56.97;;;24.13;;
6344;SDS011;3205;42.666;23.264;2024-01-15T13:33:08;54.33;;;23.57;;
6344;SDS011;3205;42.666;23.264;2024-01-15T13:35:34;50.07;;;24.70;;
6344;SDS011;3205;42.666;23.264;2024-01-15T13:38:01;54.63;;;23.87;;
6344;SDS011;3205;42.666;23.264;2024-01-15T13:40:28;46.33;;;23.63;;
6344;SDS011;3205;42.666;23.264;2024-01-15T13:42:54;45.77;;;24.07;;
6344;SDS011;3205;42.666;23.264;2024-01-15T13:45:21;53.73;;;25.70;;
6344;SDS011;3205;42.666;23.264;2024-01-15T13:47:49;54.53;;;25.20;;
6344;SDS011;3205;42.666;23.264;2024-01-15T13:50:15;54.90;;;25.30;;
6344;SDS011;3205;42.666;23.264;2024-01-15T13:52:41;51.97;;;24.20;;
6344;SDS011;3205;42.666;23.264;2024-01-15T13:55:08;54.77;;;24.10;;
6344;SDS011;3205;42.666;23.264;2024-01-15T13:57:34;66.60;;;25.70;;
6344;SDS011;3205;42.666;23.264;2024-01-15T14:00:01;67.30;;;26.23;;
6344;SDS011;3205;42.666;23.264;2024-01-15T14:02:28;63.87;;;26.73;;
6344;SDS011;3205;42.666;23.264;2024-01-15T14:04:54;72.67;;;28.27;;
6344;SDS011;3205;42.666;23.264;2024-01-15T14:07:20;79.97;;;27.63;;
6344;SDS011;3205;42.666;23.264;2024-01-15T14:09:47;50.60;;;26.80;;
6344;SDS011;3205;42.666;23.264;2024-01-15T14:12:13;66.10;;;26.00;;
6344;SDS011;3205;42.666;23.264;2024-01-15T14:14:39;89.63;;;28.40;;
6344;SDS011;3205;42.666;23.264;2024-01-15T14:17:05;68.77;;;28.33;;
6344;SDS011;3205;42.666;23.264;2024-01-15T14:19:32;60.60;;;26.60;;
6344;SDS011;3205;42.666;23.264;2024-01-15T14:21:59;83.13;;;29.50;;
6344;SDS011;3205;42.666;23.264;2024-01-15T14:24:25;76.03;;;30.03;;
6344;SDS011;3205;42.666;23.264;2024-01-15T14:26:51;67.63;;;29.30;;
6344;SDS011;3205;42.666;23.264;2024-01-15T14:29:18;80.80;;;33.57;;
6344;SDS011;3205;42.666;23.264;2024-01-15T14:31:45;63.37;;;30.47;;
6344;SDS011;3205;42.666;23.264;2024-01-15T14:34:12;72.80;;;31.87;;
6344;SDS011;3205;42.666;23.264;2024-01-15T14:36:39;70.47;;;31.77;;
6344;SDS011;3205;42.666;23.264;2024-01-15T14:39:05;73.90;;;33.07;;